• Join FlightAware (Why Join?)
  • Login
  • US Flag 
10:03PM EST


 

Airport Tracker/Info


-or-


 

Live Flight TrackerFlight Track Log ✈ UAL3744 ✈ 24-Apr-2013 ✈ KIAD - KDFW

Flight Track Log - Related Links

Times and Time Zones

All times are in EDT time to prevent confusion due to time zone crossing. See the UAL3744 flight status page for this flight to view local times or setup timezone preferences in your user account.

Time Position Orientation Groundspeed Altitude Reporting Facility
EDT Latitude Longitude Course Direction KTS MPH feet Rate Location/Type
08:38AM 38.9167 -77.4333 229° Southwest 162 186 1,300  Level Potomac TRACON
08:39AM 38.8833 -77.4833 229° Southwest 211 243 2,700 1,980 Climbing Potomac TRACON
08:41AM 38.7947 -77.5839 222° Southwest 240 276 7,000 2,460 Climbing Washington Center
08:42AM 38.7808 -77.6742 259° West 245 282 9,900 2,580 Climbing Washington Center
08:43AM 38.8294 -77.7528 308° West 228 262 12,200 1,800 Climbing Washington Center
08:44AM 38.8375 -77.8731 275° West 288 331 13,600 1,320 Climbing Washington Center
08:45AM 38.8417 -77.9822 273° West 324 373 14,900 1,320 Climbing Washington Center
08:46AM 38.8497 -78.1053 275° West 342 394 16,300 1,020 Climbing Washington Center
08:47AM 38.8550 -78.2386 273° West 364 419 17,000 720 Climbing Washington Center
08:48AM 38.8519 -78.3800 268° West 385 443 17,800 900 Climbing Washington Center
08:49AM 38.8508 -78.5183 269° West 390 449 18,800 960 Climbing Washington Center
08:50AM 38.8492 -78.6597 269° West 396 456 19,800 960 Climbing Washington Center
08:51AM 38.8478 -78.8008 269° West 401 461 20,800 960 Climbing Washington Center
08:52AM 38.8458 -78.9419 269° West 401 461 21,800 960 Climbing Washington Center
08:53AM 38.8439 -79.0833 269° West 401 461 22,800 960 Climbing Washington Center
08:54AM 38.8358 -79.2214 266° West 401 461 23,800 960 Climbing Washington Center
08:55AM 38.8128 -79.3589 258° West 401 461 24,800 960 Climbing Washington Center
08:56AM 38.7919 -79.4911 259° West 401 461 25,800 960 Climbing Washington Center
08:57AM 38.7642 -79.6333 256° West 401 461 26,800 960 Climbing Washington Center
08:58AM 38.7386 -79.7678 256° West 401 461 27,800 1,080 Climbing Washington Center
08:59AM 38.7125 -79.9178 257° West 401 461 29,000 1,020 Climbing Washington Center
09:00AM 38.6600 -80.0425 242° Southwest 390 449 29,900 900 Climbing Washington Center
09:01AM 38.5972 -80.1583 235° Southwest 396 456 30,900 900 Climbing Washington Center
09:02AM 38.5392 -80.2608 234° Southwest 404 465 31,800 900 Climbing Washington Center
09:03AM 38.4892 -80.4061 246° West 393 452 32,900 900 Climbing Indianapolis Center
09:04AM 38.4772 -80.5414 264° West 384 442 33,800 480 Climbing Indianapolis Center
09:05AM 38.4681 -80.6786 265° West 388 447 34,000 240 Climbing Indianapolis Center
09:06AM 38.4881 -80.8156 281° West 392 451 34,400 420 Climbing Indianapolis Center
09:07AM 38.5072 -80.9547 280° West 397 457 34,900 480 Climbing Indianapolis Center
09:08AM 38.5283 -81.0917 281° West 393 452 35,500 480 Climbing Indianapolis Center
09:09AM 38.4961 -81.2547 256° West 390 449 36,000 240 Climbing Indianapolis Center
09:10AM 38.4583 -81.3911 251° West 398 458 36,000  Level Indianapolis Center
09:11AM 38.4194 -81.5261 250° West 401 461 36,000  Level Indianapolis Center
09:12AM 38.3831 -81.6553 250° West 386 444 36,000  Level Indianapolis Center
09:13AM 38.3481 -81.7781 250° West 370 426 36,000  Level Indianapolis Center
09:14AM 38.3136 -81.9047 251° West 374 430 36,000  Level Indianapolis Center
09:15AM 38.2775 -82.0256 249° West 367 422 36,000  Level Indianapolis Center
09:16AM 38.2444 -82.1439 250° West 357 411 36,000  Level Indianapolis Center
09:17AM 38.2108 -82.2631 250° West 356 410 36,000  Level Indianapolis Center
09:18AM 38.1781 -82.3811 251° West 355 409 36,000  Level Indianapolis Center
09:19AM 38.1392 -82.5172 250° West 362 417 36,000  Level Indianapolis Center
09:20AM 38.1056 -82.6342 250° West 357 411 36,000  Level Indianapolis Center
09:22AM 38.0700 -82.7544 249° West 361 415 36,000  Level Indianapolis Center
09:23AM 38.0297 -82.8967 250° West 366 421 36,000  Level Indianapolis Center
09:24AM 37.9953 -83.0167 250° West 364 419 36,000  Level Indianapolis Center
09:25AM 37.9594 -83.1364 249° West 364 419 36,000  Level Indianapolis Center
09:26AM 37.9233 -83.2586 249° West 369 425 36,000  Level Indianapolis Center
09:27AM 37.8869 -83.3811 249° West 373 429 36,000  Level Indianapolis Center
09:28AM 37.8500 -83.5058 249° West 377 434 36,000  Level Indianapolis Center
09:29AM 37.8061 -83.6528 249° West 383 441 36,000  Level Indianapolis Center
09:30AM 37.7681 -83.7803 249° West 388 447 36,000  Level Indianapolis Center
09:31AM 37.7294 -83.9072 249° West 389 448 36,000  Level Indianapolis Center
09:32AM 37.6908 -84.0358 249° West 391 450 36,100  Climbing Indianapolis Center
09:33AM 37.6511 -84.1642 249° West 392 451 36,000 -60 Descending Indianapolis Center
09:34AM 37.6058 -84.3139 249° West 392 451 36,000  Level Indianapolis Center
09:35AM 37.5667 -84.4417 249° West 393 452 36,000  Level Indianapolis Center
09:36AM 37.5275 -84.5694 249° West 392 451 36,000  Level Indianapolis Center
09:37AM 37.4878 -84.6961 248° West 391 450 36,000  Level Indianapolis Center
09:38AM 37.4478 -84.8236 248° West 391 450 36,000  Level Indianapolis Center
09:39AM 37.4083 -84.9519 249° West 391 450 36,000  Level Indianapolis Center
09:40AM 37.3614 -85.1017 249° West 394 453 36,000  Level Indianapolis Center
09:41AM 37.3206 -85.2292 248° West 393 452 36,000  Level Indianapolis Center
09:42AM 37.2800 -85.3583 248° West 396 456 36,000  Level Indianapolis Center
09:43AM 37.2381 -85.4869 248° West 396 456 36,000  Level Indianapolis Center
09:44AM 37.1953 -85.6264 249° West 395 455 36,000  Level Indianapolis Center
09:45AM 37.1753 -85.6892 248° West 394 453 36,000  Level Memphis Center
09:46AM 37.1400 -85.8033 249° West 394 453 36,000  Level Memphis Center
09:47AM 37.0986 -85.9278 247° West 394 453 36,000  Level Memphis Center
09:48AM 37.0572 -86.0522 247° West 394 453 36,000  Level Memphis Center
09:49AM 37.0175 -86.1739 248° West 389 448 36,000  Level Memphis Center
09:50AM 36.9778 -86.2956 248° West 384 442 36,000  Level Memphis Center
09:51AM 36.9364 -86.4272 249° West 378 435 36,000  Level Memphis Center
09:52AM 36.8942 -86.5461 246° West 378 435 36,000  Level Memphis Center
09:53AM 36.8536 -86.6569 245° Southwest 371 427 36,000  Level Memphis Center
09:54AM 36.8114 -86.7756 246° West 366 421 36,000  Level Memphis Center
09:55AM 36.7708 -86.8861 245° Southwest 360 414 36,000  Level Memphis Center
09:56AM 36.7303 -87.0017 246° West 360 414 36,000  Level Memphis Center
09:57AM 36.6872 -87.1147 245° Southwest 360 414 36,000  Level Memphis Center
09:58AM 36.6464 -87.2303 246° West 360 414 36,000  Level Memphis Center
09:59AM 36.6033 -87.3431 245° Southwest 366 421 36,000  Level Memphis Center
10:00AM 36.5625 -87.4583 246° West 366 421 36,000  Level Memphis Center
10:01AM 36.5172 -87.5736 244° Southwest 361 415 36,000  Level Memphis Center
10:02AM 36.4778 -87.6756 244° Southwest 361 415 36,000  Level Memphis Center
10:03AM 36.4364 -87.7878 245° Southwest 361 415 36,000  Level Memphis Center
10:04AM 36.3947 -87.9025 246° West 366 421 36,000  Level Memphis Center
10:05AM 36.3533 -88.0172 246° West 366 421 36,000  Level Memphis Center
10:06AM 36.3117 -88.1292 245° Southwest 358 412 36,000  Level Memphis Center
10:07AM 36.2678 -88.2436 245° Southwest 358 412 36,000  Level Memphis Center
10:08AM 36.2236 -88.3581 244° Southwest 363 418 36,000  Level Memphis Center
10:09AM 36.1736 -88.4853 244° Southwest 363 418 36,000  Level Memphis Center
10:10AM 36.1272 -88.6019 244° Southwest 363 418 36,000  Level Memphis Center
10:11AM 36.0831 -88.7158 244° Southwest 368 423 36,000  Level Memphis Center
10:12AM 36.0386 -88.8297 244° Southwest 368 423 36,000  Level Memphis Center
10:13AM 35.9942 -88.9433 244° Southwest 368 423 36,000  Level Memphis Center
10:14AM 35.9494 -89.0569 244° Southwest 368 423 36,000  Level Memphis Center
10:15AM 35.9047 -89.1706 244° Southwest 368 423 36,000  Level Memphis Center
10:16AM 35.8619 -89.2839 245° Southwest 368 423 36,000  Level Memphis Center
10:17AM 35.8150 -89.3969 243° Southwest 368 423 36,000  Level Memphis Center
10:18AM 35.7719 -89.5100 245° Southwest 368 423 36,000  Level Memphis Center
10:19AM 35.7247 -89.6256 243° Southwest 368 423 36,000  Level Memphis Center
10:20AM 35.6897 -89.7156 244° Southwest 368 423 36,000  Level Memphis Center
10:21AM 35.6425 -89.8511 247° West 356 410 36,000  Level Memphis Center
10:22AM 35.5969 -89.9639 244° Southwest 367 422 36,000  Level Memphis Center
10:23AM 35.5514 -90.0764 244° Southwest 367 422 36,000  Level Memphis Center
10:24AM 35.5078 -90.1914 245° Southwest 367 422 36,000  Level Memphis Center
10:25AM 35.4622 -90.3008 243° Southwest 360 414 36,000  Level Memphis Center
10:26AM 35.4161 -90.4156 244° Southwest 365 420 36,000  Level Memphis Center
10:27AM 35.3722 -90.5250 244° Southwest 365 420 36,000  Level Memphis Center
10:28AM 35.3261 -90.6394 244° Southwest 365 420 36,000  Level Memphis Center
10:29AM 35.2842 -90.7386 243° Southwest 365 420 36,000  Level Memphis Center
10:30AM 35.2381 -90.8503 243° Southwest 359 413 36,000  Level Memphis Center
10:31AM 35.1917 -90.9617 243° Southwest 365 420 36,000  Level Memphis Center
10:32AM 35.1472 -91.0733 244° Southwest 365 420 36,000  Level Memphis Center
10:33AM 35.1006 -91.1844 243° Southwest 365 420 36,000  Level Memphis Center
10:34AM 35.0539 -91.2956 243° Southwest 370 426 36,000  Level Memphis Center
10:35AM 35.0008 -91.4117 241° Southwest 362 417 36,000  Level Memphis Center
10:36AM 34.9561 -91.5225 244° Southwest 362 417 36,000  Level Memphis Center
10:37AM 34.9092 -91.6333 243° Southwest 367 422 36,000  Level Memphis Center
10:38AM 34.8619 -91.7442 243° Southwest 367 422 36,000  Level Memphis Center
10:39AM 34.8169 -91.8519 243° Southwest 361 415 36,000  Level Memphis Center
10:40AM 34.7697 -91.9625 243° Southwest 361 415 36,000  Level Memphis Center
10:41AM 34.7222 -92.0753 243° Southwest 361 415 36,000  Level Memphis Center
10:42AM 34.6789 -92.1831 244° Southwest 361 415 36,000  Level Memphis Center
10:43AM 34.6458 -92.3036 252° West 361 415 36,000  Level Memphis Center
10:44AM 34.6150 -92.4164 252° West 361 415 36,000  Level Memphis Center
10:45AM 34.5817 -92.5342 251° West 366 421 36,000  Level Memphis Center
10:46AM 34.5522 -92.6519 253° West 366 421 36,000  Level Memphis Center
10:47AM 34.5208 -92.7694 252° West 366 421 36,000  Level Memphis Center
10:48AM 34.4894 -92.8869 252° West 366 421 36,000  Level Memphis Center
10:49AM 34.4622 -92.9919 253° West 373 429 36,000  Level Memphis Center
10:50AM 34.4283 -93.1119 251° West 373 429 36,000  Level Memphis Center
10:51AM 34.3778 -93.3197 254° West 364 419 36,000  Level Fort Worth Center
10:52AM 34.3442 -93.4369 251° West 369 425 36,000  Level Fort Worth Center
10:53AM 34.3122 -93.5542 252° West 369 425 36,000  Level Fort Worth Center
10:54AM 34.2783 -93.6739 251° West 369 425 36,000  Level Fort Worth Center
10:55AM 34.2483 -93.7931 253° West 369 425 36,000  Level Fort Worth Center
10:56AM 34.2142 -93.9100 251° West 369 425 36,000  Level Fort Worth Center
10:57AM 34.1800 -94.0294 251° West 374 430 36,000  Level Fort Worth Center
10:58AM 34.1456 -94.1486 251° West 374 430 36,000 -180 Level Fort Worth Center
10:59AM 34.1131 -94.2678 252° West 374 430 35,700 -1,200 Descending Fort Worth Center
11:00AM 34.0806 -94.3869 252° West 374 430 33,700 -1,860 Descending Fort Worth Center
11:01AM 34.0478 -94.4983 250° West 369 425 32,000 -1,800 Descending Fort Worth Center
11:02AM 34.0167 -94.6044 251° West 357 411 30,200 -1,800 Descending Fort Worth Center
11:03AM 34.0044 -94.7100 262° West 349 402 28,400 -1,800 Descending Fort Worth Center
11:04AM 34.0294 -94.8097 287° West 310 357 26,600 -1,800 Descending Fort Worth Center
11:05AM 34.0044 -94.9106 253° West 310 357 24,800 -1,320 Descending Fort Worth Center
11:06AM 33.9728 -95.0042 248° West 310 357 24,000 -420 Descending Fort Worth Center
11:07AM 33.9411 -95.0928 247° West 305 351 24,000  Level Fort Worth Center
11:08AM 33.9114 -95.1811 248° West 293 337 24,000  Level Fort Worth Center
11:09AM 33.8778 -95.2769 247° West 298 343 24,000  Level Fort Worth Center
11:10AM 33.8436 -95.3678 246° West 298 343 24,000 -300 Level Fort Worth Center
11:11AM 33.8097 -95.4661 247° West 306 352 23,400 -900 Descending Fort Worth Center
11:12AM 33.7758 -95.5694 248° West 320 368 22,300 -1,200 Descending Fort Worth Center
11:13AM 33.7317 -95.6900 246° West 353 406 21,100 -1,200 Descending Fort Worth Center
11:14AM 33.6914 -95.8083 248° West 371 427 20,000 -1,140 Descending Fort Worth Center
11:15AM 33.6531 -95.9089 245° Southwest 376 433 18,900 -960 Descending Fort Worth Center
11:16AM 33.6106 -96.0342 248° West 381 438 18,100 -900 Descending Fort Worth Center
11:17AM 33.5742 -96.1344 246° West 376 433 17,100 -1,140 Descending Fort Worth Center
11:18AM 33.5231 -96.2475 242° Southwest 358 412 15,900 -1,140 Descending Fort Worth Center
11:19AM 33.4592 -96.3253 225° Southwest 363 418 14,900 -1,140 Descending Fort Worth Center
11:20AM 33.3847 -96.4158 225° Southwest 358 412 13,700 -1,140 Descending Fort Worth Center
11:21AM 33.3308 -96.4811 225° Southwest 324 373 12,700 -1,140 Descending Fort Worth Center
11:22AM 33.2667 -96.5589 225° Southwest 303 349 11,500 -900 Descending Fort Worth Center
11:23AM 33.2067 -96.6289 224° Southwest 303 349 11,000 -240 Descending Fort Worth Center
11:24AM 33.1589 -96.6864 225° Southwest 285 328 11,100  Climbing Fort Worth Center
11:25AM 33.1008 -96.7564 225° Southwest 274 315 11,100  Level Fort Worth Center
11:26AM 33.0833 -96.7833 232° Southwest 276 318 11,100 -60 Level Dallas / Fort Worth TRACON
11:27AM 32.9931 -96.8808 222° Southwest 274 315 11,000  Descending Fort Worth Center
11:28AM 32.9667 -96.9000 211° Southwest 265 305 11,100 -1,020 Climbing Dallas / Fort Worth TRACON
11:29AM 32.8533 -96.9064 183° South 251 289 9,000 -1,740 Descending Fort Worth Center
11:30AM 32.8167 -96.9000 172° South 241 277 7,700 -3,060 Descending Dallas / Fort Worth TRACON
11:31AM 32.7500 -96.9167 192° South 251 289 4,600 -2,280 Descending Dallas / Fort Worth TRACON
11:32AM 32.7500 -96.9833 270° West 213 245 3,200 -960 Descending Dallas / Fort Worth TRACON
11:33AM 32.7833 -97.0333 308° West 198 228 2,700 -720 Descending Dallas / Fort Worth TRACON
11:34AM 32.8167 -97.0333 360° North 132 152 1,800 -840 Descending Dallas / Fort Worth TRACON
11:35AM 32.8667 -97.0333 360° North 130 150 1,100 -720 Descending Dallas / Fort Worth TRACON
11:37AM 32.8909 -97.0033 253° West  Level FlightAware Approximate
11:44AM 32.8833 -97.0333 253° West  Level FlightAware Approximate